Time;durP1;ratioP1;P1;durP2;ratioP2;P2;SDS_P1;SDS_P2;PMS_P1;PMS_P2;Temp;Humidity;BMP_temperature;BMP_pressure;BME280_temperature;BME280_humidity;BME280_pressure;Samples;Min_cycle;Max_cycle;Signal;HPM_P1;HPM_P2
2022/02/18 00:01:00;;;;;;;4.93;2.50;;;6.30;99.90;;;;;;5089833;28;20450;-71
2022/02/18 00:03:30;;;;;;;3.00;1.83;;;6.40;99.90;;;;;;5089959;28;20446;-70
2022/02/18 00:06:00;;;;;;;7.77;1.90;;;6.40;99.90;;;;;;5087686;28;20465;-71
2022/02/18 00:08:27;;;;;;;12.53;2.03;;;6.40;99.90;;;;;;5089975;28;20487;-70
2022/02/18 00:10:54;;;;;;;7.60;2.37;;;6.30;99.90;;;;;;5089172;28;20450;-70
2022/02/18 00:13:21;;;;;;;8.53;2.23;;;6.30;99.90;;;;;;5088589;28;20469;-71
2022/02/18 00:15:47;;;;;;;13.03;2.37;;;6.30;99.90;;;;;;5089318;28;20458;-71
2022/02/18 00:18:16;;;;;;;6.83;2.07;;;6.30;99.90;;;;;;5089365;28;20446;-72
2022/02/18 00:20:43;;;;;;;12.37;2.17;;;6.30;99.90;;;;;;5087637;28;20455;-71
2022/02/18 00:23:11;;;;;;;6.33;3.20;;;6.30;99.90;;;;;;5088280;28;20465;-71
2022/02/18 00:25:40;;;;;;;6.40;2.00;;;6.30;99.90;;;;;;5087672;28;20454;-71
2022/02/18 00:28:07;;;;;;;6.23;1.73;;;6.30;99.90;;;;;;5088762;28;20478;-71
2022/02/18 00:30:34;;;;;;;9.73;2.80;;;6.30;99.90;;;;;;5088036;28;20478;-72
2022/02/18 00:33:00;;;;;;;6.77;1.67;;;6.30;99.90;;;;;;5088844;28;20454;-71
2022/02/18 00:35:27;;;;;;;3.77;1.97;;;6.30;99.90;;;;;;5088244;28;20469;-70
2022/02/18 00:37:55;;;;;;;8.00;2.03;;;6.30;99.90;;;;;;5089034;28;20458;-71
2022/02/18 00:40:30;;;;;;;4.50;1.60;;;6.30;99.90;;;;;;5088796;28;20484;-71
2022/02/18 00:42:57;;;;;;;6.53;2.00;;;6.30;99.90;;;;;;5088399;28;20434;-71
2022/02/18 00:45:24;;;;;;;8.83;2.20;;;6.30;99.90;;;;;;5087363;28;20450;-71
2022/02/18 00:47:51;;;;;;;6.77;2.43;;;6.30;99.90;;;;;;5087910;28;20457;-70
2022/02/18 00:50:18;;;;;;;7.17;1.90;;;6.30;99.90;;;;;;5088008;28;20450;-71
2022/02/18 00:52:46;;;;;;;9.33;2.23;;;6.30;99.90;;;;;;5088047;28;20450;-72
2022/02/18 00:55:13;;;;;;;5.77;1.40;;;6.20;99.90;;;;;;5087761;28;20462;-71
2022/02/18 00:57:41;;;;;;;11.37;1.70;;;6.20;99.90;;;;;;5087373;28;20466;-71
2022/02/18 01:00:10;;;;;;;9.50;2.77;;;6.20;99.90;;;;;;5087973;28;20446;-71
2022/02/18 01:02:39;;;;;;;4.97;2.23;;;6.20;99.90;;;;;;5087733;28;20450;-70
2022/02/18 01:05:07;;;;;;;13.17;1.83;;;6.20;99.90;;;;;;5087326;28;20454;-71
2022/02/18 01:07:34;;;;;;;9.27;1.70;;;6.20;99.90;;;;;;5087398;28;20462;-71
2022/02/18 01:10:01;;;;;;;7.93;2.47;;;6.20;99.90;;;;;;5087507;28;20942;-72
2022/02/18 01:12:28;;;;;;;8.67;2.30;;;6.20;99.90;;;;;;5088342;28;20469;-71
2022/02/18 01:14:56;;;;;;;6.27;1.93;;;6.20;99.90;;;;;;5088006;28;20462;-72
2022/02/18 01:17:23;;;;;;;6.20;1.93;;;6.10;99.90;;;;;;5087610;28;20466;-71
2022/02/18 01:19:50;;;;;;;5.47;1.90;;;6.10;99.90;;;;;;5087838;28;20462;-71
2022/02/18 01:22:17;;;;;;;11.93;2.07;;;6.10;99.90;;;;;;5087037;28;20450;-72
2022/02/18 01:24:46;;;;;;;10.13;2.07;;;6.10;99.90;;;;;;5087996;28;20462;-70
2022/02/18 01:27:13;;;;;;;11.77;3.40;;;6.10;99.90;;;;;;5088903;28;20503;-70
2022/02/18 01:29:40;;;;;;;9.93;2.40;;;6.10;99.90;;;;;;5088318;28;20560;-71
2022/02/18 01:32:10;;;;;;;9.90;1.83;;;6.10;99.90;;;;;;5089481;28;20437;-71
2022/02/18 01:34:37;;;;;;;7.63;2.07;;;6.10;99.90;;;;;;5088488;28;20514;-71
2022/02/18 01:37:04;;;;;;;4.07;1.53;;;6.10;99.90;;;;;;5088447;28;20458;-71
2022/02/18 01:39:31;;;;;;;7.10;1.90;;;6.00;99.90;;;;;;5087609;28;20458;-71
2022/02/18 01:41:58;;;;;;;5.37;1.63;;;6.00;99.90;;;;;;5087404;28;20474;-71
2022/02/18 01:44:37;;;;;;;6.60;2.03;;;6.00;99.90;;;;;;5087279;28;20438;-71
2022/02/18 01:47:05;;;;;;;5.57;1.50;;;6.00;99.90;;;;;;5087750;28;20451;-71
2022/02/18 01:49:36;;;;;;;8.43;1.87;;;6.00;99.90;;;;;;5087738;28;20478;-71
2022/02/18 01:52:04;;;;;;;10.80;2.10;;;6.00;99.90;;;;;;5087393;28;20465;-71
2022/02/18 01:54:30;;;;;;;4.30;1.53;;;6.00;99.90;;;;;;5087494;28;20522;-71
2022/02/18 01:56:58;;;;;;;7.90;1.83;;;6.00;99.90;;;;;;5086574;28;20461;-70
2022/02/18 01:59:28;;;;;;;2.97;1.60;;;6.00;99.90;;;;;;5086938;28;20454;-71
2022/02/18 02:01:55;;;;;;;5.37;1.70;;;6.00;99.90;;;;;;5086958;28;20450;-71
2022/02/18 02:04:22;;;;;;;7.60;1.90;;;6.10;99.90;;;;;;5085683;28;20486;-71
2022/02/18 02:06:51;;;;;;;9.63;1.90;;;6.10;99.90;;;;;;5085977;28;20454;-70
2022/02/18 02:09:18;;;;;;;5.73;1.40;;;6.10;99.90;;;;;;5084551;28;20475;-69
2022/02/18 02:11:45;;;;;;;6.37;1.87;;;6.10;99.90;;;;;;5084817;28;20541;-71
2022/02/18 02:14:12;;;;;;;10.07;2.27;;;6.00;99.90;;;;;;5086186;28;20461;-70
2022/02/18 02:16:38;;;;;;;3.33;1.50;;;6.00;99.90;;;;;;5086620;28;20469;-71
2022/02/18 02:19:08;;;;;;;6.73;2.37;;;6.10;99.90;;;;;;5088447;28;20461;-71
2022/02/18 02:21:35;;;;;;;8.40;2.33;;;6.00;99.90;;;;;;5088107;28;20465;-71
2022/02/18 02:24:03;;;;;;;6.10;1.60;;;6.00;99.90;;;;;;5086926;28;20586;-71
2022/02/18 02:26:30;;;;;;;3.00;1.63;;;6.00;99.90;;;;;;5087581;28;20454;-71
2022/02/18 02:28:57;;;;;;;7.30;1.90;;;6.00;99.90;;;;;;5086404;28;20845;-70
2022/02/18 02:31:24;;;;;;;4.60;1.60;;;6.00;99.90;;;;;;5086967;28;20482;-71
2022/02/18 02:33:53;;;;;;;7.93;2.30;;;6.00;99.90;;;;;;5085730;28;20469;-71
2022/02/18 02:36:21;;;;;;;3.80;1.50;;;6.00;99.90;;;;;;5085000;28;20466;-71
2022/02/18 02:38:48;;;;;;;8.53;1.90;;;6.00;99.90;;;;;;5084066;28;20767;-71
2022/02/18 02:41:17;;;;;;;7.93;1.70;;;6.00;99.90;;;;;;5083720;28;20469;-71
2022/02/18 02:43:44;;;;;;;7.30;1.63;;;5.90;99.90;;;;;;5085279;28;20466;-71
2022/02/18 02:46:11;;;;;;;12.17;2.00;;;5.90;99.90;;;;;;5084799;28;20465;-71
2022/02/18 02:48:37;;;;;;;10.17;2.40;;;5.90;99.90;;;;;;5085736;28;20541;-72
2022/02/18 02:51:05;;;;;;;9.03;2.07;;;5.90;99.90;;;;;;5085123;28;20462;-71
2022/02/18 02:53:31;;;;;;;8.50;2.20;;;5.90;99.90;;;;;;5085287;28;20457;-71
2022/02/18 02:55:58;;;;;;;5.70;1.23;;;5.80;99.90;;;;;;5085818;28;20480;-71
2022/02/18 02:58:26;;;;;;;7.10;1.93;;;5.80;99.90;;;;;;5086657;28;20561;-72
2022/02/18 03:00:53;;;;;;;5.20;2.27;;;5.80;99.90;;;;;;5086103;28;20454;-71
2022/02/18 03:03:20;;;;;;;4.43;1.60;;;5.80;99.90;;;;;;5085685;28;20542;-71
2022/02/18 03:05:48;;;;;;;4.83;1.87;;;5.80;99.90;;;;;;5085060;28;20454;-72
2022/02/18 03:08:14;;;;;;;10.30;1.80;;;5.70;99.90;;;;;;5086433;28;20510;-71
2022/02/18 03:10:41;;;;;;;9.27;2.67;;;5.70;99.90;;;;;;5086514;28;20493;-71
2022/02/18 03:13:08;;;;;;;8.23;2.33;;;5.70;99.90;;;;;;5086893;28;20510;-71
2022/02/18 03:15:36;;;;;;;6.70;1.90;;;5.70;99.90;;;;;;5087734;28;20456;-71
2022/02/18 03:18:05;;;;;;;4.30;1.73;;;5.70;99.90;;;;;;5086662;28;20485;-72
2022/02/18 03:20:32;;;;;;;9.13;2.03;;;5.60;99.90;;;;;;5079102;28;20798;-72
2022/02/18 03:22:58;;;;;;;5.73;1.87;;;5.60;99.90;;;;;;5076786;28;20459;-72
2022/02/18 03:25:25;;;;;;;7.80;2.03;;;5.60;99.90;;;;;;5077350;28;20469;-71
2022/02/18 03:27:52;;;;;;;7.33;2.37;;;5.60;99.90;;;;;;5077158;28;20557;-71
2022/02/18 03:30:19;;;;;;;2.03;1.77;;;5.50;99.90;;;;;;5076585;28;20486;-71
2022/02/18 03:32:47;;;;;;;4.60;2.50;;;5.50;99.90;;;;;;5076953;28;20545;-71
2022/02/18 03:35:13;;;;;;;9.30;1.90;;;5.50;99.90;;;;;;5076680;28;20907;-71
2022/02/18 03:37:40;;;;;;;7.60;2.00;;;5.50;99.90;;;;;;5076615;28;20771;-71
2022/02/18 03:40:08;;;;;;;3.17;2.00;;;5.50;99.90;;;;;;5077335;28;20776;-72
2022/02/18 03:42:35;;;;;;;9.00;1.77;;;5.50;99.90;;;;;;5076849;28;20454;-70
2022/02/18 03:45:03;;;;;;;4.60;2.07;;;5.50;99.90;;;;;;5077079;28;20599;-71
2022/02/18 03:47:29;;;;;;;9.70;2.67;;;5.50;99.90;;;;;;5077044;28;20511;-71
2022/02/18 03:49:57;;;;;;;7.57;2.93;;;5.50;99.90;;;;;;5075730;28;20511;-70
2022/02/18 03:52:24;;;;;;;12.20;1.77;;;5.50;99.90;;;;;;5076051;28;20458;-70
2022/02/18 03:54:51;;;;;;;12.63;2.20;;;5.50;99.90;;;;;;5075571;28;20553;-70
2022/02/18 03:57:17;;;;;;;7.97;1.93;;;5.50;99.90;;;;;;5075145;28;20458;-70
2022/02/18 03:59:46;;;;;;;8.33;2.10;;;5.50;99.90;;;;;;5075148;28;20454;-71
2022/02/18 04:02:13;;;;;;;4.57;1.53;;;5.50;99.90;;;;;;5075854;28;20465;-70
2022/02/18 04:04:40;;;;;;;6.93;2.90;;;5.50;99.90;;;;;;5076212;28;20890;-71
2022/02/18 04:07:11;;;;;;;6.83;2.50;;;5.50;99.90;;;;;;5076737;28;20466;-71
2022/02/18 04:09:38;;;;;;;8.80;1.90;;;5.50;99.90;;;;;;5077224;28;20914;-71
2022/02/18 04:12:06;;;;;;;6.33;2.23;;;5.50;99.90;;;;;;5076882;28;20473;-71
2022/02/18 04:14:32;;;;;;;7.60;1.93;;;5.50;99.90;;;;;;5076285;28;20464;-70
2022/02/18 04:16:59;;;;;;;4.27;1.50;;;5.50;99.90;;;;;;5076123;28;20469;-70
2022/02/18 04:19:26;;;;;;;7.57;2.10;;;5.50;99.90;;;;;;5076276;28;20454;-70
2022/02/18 04:21:53;;;;;;;7.60;2.03;;;5.40;99.90;;;;;;5075907;28;20987;-71
2022/02/18 04:24:21;;;;;;;4.03;1.83;;;5.40;99.90;;;;;;5075183;28;20458;-71
2022/02/18 04:26:47;;;;;;;4.20;1.87;;;5.40;99.90;;;;;;5075881;28;20454;-71
2022/02/18 04:29:14;;;;;;;6.50;2.23;;;5.40;99.90;;;;;;5075065;28;20458;-71
2022/02/18 04:31:41;;;;;;;11.13;2.37;;;5.40;99.90;;;;;;5075204;28;20497;-71
2022/02/18 04:34:07;;;;;;;7.73;1.83;;;5.40;99.90;;;;;;5078413;28;20930;-70
2022/02/18 04:36:34;;;;;;;7.63;1.90;;;5.30;99.90;;;;;;5078418;28;20849;-70
2022/02/18 04:39:01;;;;;;;4.93;1.80;;;5.30;99.90;;;;;;5078435;28;20450;-70
2022/02/18 04:41:29;;;;;;;5.73;2.00;;;5.30;99.90;;;;;;5079116;28;20458;-71
2022/02/18 04:43:56;;;;;;;5.37;2.10;;;5.40;99.90;;;;;;5078788;28;20458;-71
2022/02/18 04:46:22;;;;;;;10.03;2.20;;;5.30;99.90;;;;;;5079209;28;20462;-70
2022/02/18 04:48:52;;;;;;;8.90;2.30;;;5.30;99.90;;;;;;5078573;28;20457;-71
2022/02/18 04:51:18;;;;;;;8.37;2.87;;;5.30;99.90;;;;;;5078235;28;20474;-70
2022/02/18 04:53:45;;;;;;;5.17;2.10;;;5.30;99.90;;;;;;5078065;28;20500;-69
2022/02/18 04:56:12;;;;;;;14.40;2.67;;;5.20;99.90;;;;;;5078188;28;20473;-70
2022/02/18 04:58:40;;;;;;;7.87;1.93;;;5.20;99.90;;;;;;5077452;28;20469;-71
2022/02/18 05:01:10;;;;;;;3.60;1.90;;;5.20;99.90;;;;;;5078290;28;20450;-71
2022/02/18 05:03:37;;;;;;;5.40;1.97;;;5.20;99.90;;;;;;5078156;28;20515;-71
2022/02/18 05:06:04;;;;;;;6.77;2.00;;;5.10;99.90;;;;;;5078664;28;20458;-71
2022/02/18 05:08:31;;;;;;;4.80;1.90;;;5.10;99.90;;;;;;5078743;28;20477;-71
2022/02/18 05:10:57;;;;;;;9.70;1.90;;;5.10;99.90;;;;;;5078631;28;20478;-71
2022/02/18 05:13:24;;;;;;;4.33;2.20;;;5.10;99.90;;;;;;5078306;28;20512;-70
2022/02/18 05:15:54;;;;;;;7.33;2.13;;;5.10;99.90;;;;;;5078146;28;20462;-72
2022/02/18 05:18:23;;;;;;;10.10;2.30;;;5.10;99.90;;;;;;5078571;28;20926;-70
2022/02/18 05:20:50;;;;;;;7.87;2.83;;;5.10;99.90;;;;;;5078578;28;20457;-71
2022/02/18 05:23:17;;;;;;;7.23;2.00;;;5.10;99.90;;;;;;5077305;28;20466;-71
2022/02/18 05:25:44;;;;;;;7.50;2.57;;;5.10;99.90;;;;;;5077615;28;20466;-71
2022/02/18 05:28:10;;;;;;;6.87;2.47;;;5.00;99.90;;;;;;5077667;28;20468;-71
2022/02/18 05:30:37;;;;;;;8.20;2.07;;;5.00;99.90;;;;;;5077576;28;20486;-71
2022/02/18 05:33:05;;;;;;;9.87;2.47;;;5.00;99.90;;;;;;5077733;28;20473;-73
2022/02/18 05:35:32;;;;;;;5.43;1.80;;;5.00;99.90;;;;;;5078023;28;20532;-73
2022/02/18 05:37:59;;;;;;;11.03;2.23;;;5.00;99.90;;;;;;5077582;28;20469;-73
2022/02/18 05:40:25;;;;;;;7.70;2.63;;;5.00;99.90;;;;;;5077427;28;20465;-70
2022/02/18 05:42:58;;;;;;;7.10;2.20;;;5.00;99.90;;;;;;5076467;28;20486;-70
2022/02/18 05:45:25;;;;;;;3.30;1.83;;;4.90;99.90;;;;;;5079794;28;20902;-70
2022/02/18 05:47:54;;;;;;;13.83;1.93;;;4.90;99.90;;;;;;5080261;28;20458;-71
2022/02/18 05:50:22;;;;;;;8.10;2.40;;;4.90;99.90;;;;;;5078223;28;20856;-70
2022/02/18 05:52:49;;;;;;;4.50;2.47;;;4.90;99.90;;;;;;5076991;28;20465;-71
2022/02/18 05:55:16;;;;;;;9.27;2.30;;;4.90;99.90;;;;;;5077340;28;20934;-71
2022/02/18 05:57:43;;;;;;;10.30;2.50;;;4.90;99.90;;;;;;5077188;28;20802;-72
2022/02/18 06:00:11;;;;;;;6.67;2.73;;;4.90;99.90;;;;;;5076797;28;20568;-71
2022/02/18 06:02:39;;;;;;;7.83;2.60;;;4.90;99.90;;;;;;5076192;28;20455;-70
2022/02/18 06:05:06;;;;;;;8.17;2.57;;;5.00;99.90;;;;;;5076404;28;20460;-71
2022/02/18 06:07:34;;;;;;;11.10;3.50;;;5.00;99.90;;;;;;5076318;28;20455;-70
2022/02/18 06:10:02;;;;;;;6.47;3.17;;;5.00;99.90;;;;;;5075906;28;20485;-70
2022/02/18 06:12:28;;;;;;;10.37;3.27;;;5.00;99.90;;;;;;5076850;28;20466;-70
2022/02/18 06:14:55;;;;;;;8.07;3.20;;;5.00;99.90;;;;;;5076896;28;20469;-72
2022/02/18 06:17:22;;;;;;;8.47;4.10;;;5.00;99.90;;;;;;5076505;28;20455;-71
2022/02/18 06:19:49;;;;;;;13.73;3.20;;;5.00;99.90;;;;;;5077530;28;20454;-71
2022/02/18 06:22:16;;;;;;;6.20;3.40;;;5.00;99.90;;;;;;5077177;28;20455;-72
2022/02/18 06:24:44;;;;;;;11.10;3.53;;;5.00;99.90;;;;;;5078230;28;20930;-71
2022/02/18 06:27:11;;;;;;;9.80;3.87;;;5.00;99.90;;;;;;5078372;28;20458;-70
2022/02/18 06:29:38;;;;;;;6.80;3.17;;;5.00;99.90;;;;;;5077897;28;20484;-71
2022/02/18 06:32:11;;;;;;;8.70;3.80;;;5.10;99.90;;;;;;5078783;28;20454;-71
2022/02/18 06:34:37;;;;;;;5.33;3.00;;;5.10;99.90;;;;;;5077542;28;20541;-71
2022/02/18 06:37:05;;;;;;;7.70;2.63;;;5.10;99.90;;;;;;5077485;28;20469;-72
2022/02/18 06:39:35;;;;;;;4.77;3.03;;;5.10;99.90;;;;;;5078229;28;20458;-72
2022/02/18 06:42:04;;;;;;;15.60;3.53;;;5.10;99.90;;;;;;5079559;28;20503;-71
2022/02/18 06:44:31;;;;;;;8.53;3.47;;;5.10;99.90;;;;;;5078535;28;20446;-71
2022/02/18 06:46:57;;;;;;;11.97;3.60;;;5.20;99.90;;;;;;5077140;28;20462;-72
2022/02/18 06:49:24;;;;;;;6.20;3.00;;;5.20;99.90;;;;;;5077535;28;20465;-73
2022/02/18 06:51:55;;;;;;;12.80;3.53;;;5.20;99.90;;;;;;5077542;28;20485;-72
2022/02/18 06:54:22;;;;;;;13.80;3.90;;;5.20;99.90;;;;;;5078249;28;20443;-71
2022/02/18 06:56:49;;;;;;;7.70;4.20;;;5.20;99.90;;;;;;5079004;28;20496;-72
2022/02/18 06:59:17;;;;;;;10.20;3.20;;;5.20;99.90;;;;;;5079785;28;20450;-71
2022/02/18 07:01:44;;;;;;;8.00;3.30;;;5.20;99.90;;;;;;5078778;28;20470;-71
2022/02/18 07:04:13;;;;;;;9.73;3.40;;;5.20;99.90;;;;;;5081064;28;20465;-71
2022/02/18 07:06:40;;;;;;;10.60;3.70;;;5.30;99.90;;;;;;5080358;28;20450;-72
2022/02/18 07:09:11;;;;;;;15.00;3.70;;;5.30;99.90;;;;;;5079605;28;20466;-72
2022/02/18 07:11:38;;;;;;;7.77;3.70;;;5.30;99.90;;;;;;5077586;28;20845;-72
2022/02/18 07:14:12;;;;;;;6.50;3.57;;;5.40;99.90;;;;;;5077506;28;20474;-73
2022/02/18 07:16:42;;;;;;;7.23;4.17;;;5.40;99.90;;;;;;5079730;28;20438;-70
2022/02/18 07:19:13;;;;;;;6.93;3.70;;;5.40;99.90;;;;;;5079177;28;20799;-71
2022/02/18 07:21:40;;;;;;;7.73;4.60;;;5.50;99.90;;;;;;5078116;28;20466;-71
2022/02/18 07:24:07;;;;;;;8.50;4.43;;;5.50;99.90;;;;;;5077973;28;20458;-72
2022/02/18 07:26:34;;;;;;;11.33;5.17;;;5.50;99.90;;;;;;5078497;28;20492;-72
2022/02/18 07:29:00;;;;;;;9.33;4.93;;;5.50;99.90;;;;;;5077671;28;20454;-72
2022/02/18 07:31:27;;;;;;;11.40;4.20;;;5.60;99.90;;;;;;5077687;28;20490;-71
2022/02/18 07:33:55;;;;;;;13.80;4.80;;;5.60;99.90;;;;;;5078187;28;20469;-73
2022/02/18 07:36:24;;;;;;;10.03;5.03;;;5.70;99.90;;;;;;5077074;28;20466;-74
2022/02/18 07:38:50;;;;;;;12.60;4.70;;;5.70;99.90;;;;;;5077732;28;20458;-74
2022/02/18 07:41:17;;;;;;;11.47;5.17;;;5.70;99.90;;;;;;5078384;28;20450;-71
2022/02/18 07:43:44;;;;;;;10.30;5.43;;;5.80;99.90;;;;;;5079369;28;20462;-74
2022/02/18 07:46:11;;;;;;;10.83;5.00;;;5.80;99.90;;;;;;5078943;28;20462;-72
2022/02/18 07:48:37;;;;;;;11.37;5.50;;;5.90;99.90;;;;;;5078039;28;20462;-71
2022/02/18 07:51:07;;;;;;;12.20;5.83;;;5.90;99.90;;;;;;5078877;28;20474;-72
2022/02/18 07:53:34;;;;;;;9.47;4.70;;;6.00;99.90;;;;;;5079938;28;20486;-72
2022/02/18 07:56:01;;;;;;;9.30;5.30;;;6.10;99.90;;;;;;5080551;28;20954;-72
2022/02/18 07:58:30;;;;;;;10.47;5.80;;;6.20;99.90;;;;;;5080204;28;20457;-70
2022/02/18 08:00:57;;;;;;;8.57;5.27;;;6.20;99.90;;;;;;5079310;28;20493;-71
2022/02/18 08:03:26;;;;;;;11.73;5.80;;;6.30;99.90;;;;;;5080394;28;20451;-71
2022/02/18 08:05:53;;;;;;;12.30;4.63;;;6.40;99.90;;;;;;5080545;28;20557;-72
2022/02/18 08:08:24;;;;;;;11.27;5.73;;;6.40;99.90;;;;;;5084508;28;20493;-73
2022/02/18 08:10:54;;;;;;;7.87;4.73;;;6.40;99.90;;;;;;5084219;28;20804;-73
2022/02/18 08:13:21;;;;;;;10.40;4.80;;;6.50;99.90;;;;;;5083884;28;20450;-71
2022/02/18 08:15:47;;;;;;;10.60;5.20;;;6.50;99.90;;;;;;5083655;28;20465;-73
2022/02/18 08:18:19;;;;;;;13.83;5.00;;;6.60;99.90;;;;;;5083761;28;20818;-73
2022/02/18 08:20:49;;;;;;;6.67;4.43;;;6.70;99.90;;;;;;5085208;28;20435;-73
2022/02/18 08:23:16;;;;;;;12.13;4.90;;;6.70;99.90;;;;;;5084359;28;20464;-72
2022/02/18 08:25:44;;;;;;;16.53;5.07;;;6.80;99.90;;;;;;5085022;28;20478;-74
2022/02/18 08:28:11;;;;;;;12.60;5.00;;;6.80;99.90;;;;;;5085232;28;20462;-74
2022/02/18 08:30:38;;;;;;;13.50;5.20;;;6.90;99.90;;;;;;5084811;28;20497;-72
2022/02/18 08:33:05;;;;;;;10.20;4.97;;;7.00;99.90;;;;;;5085252;28;20511;-72
2022/02/18 08:35:32;;;;;;;10.80;5.27;;;7.00;99.90;;;;;;5085194;28;20464;-72
2022/02/18 08:38:00;;;;;;;9.30;5.50;;;7.00;99.90;;;;;;5086092;28;20450;-72
2022/02/18 08:40:28;;;;;;;10.73;5.30;;;7.10;99.90;;;;;;5086438;28;20454;-73
2022/02/18 08:42:58;;;;;;;13.57;5.33;;;7.10;99.90;;;;;;5086873;28;20454;-72
2022/02/18 08:45:25;;;;;;;8.47;4.87;;;7.20;99.90;;;;;;5086868;28;20431;-72
2022/02/18 08:47:52;;;;;;;11.27;4.60;;;7.20;99.90;;;;;;5084763;28;20466;-72
2022/02/18 08:50:20;;;;;;;9.30;5.20;;;7.20;99.90;;;;;;5086683;28;20481;-71
2022/02/18 08:52:47;;;;;;;9.80;5.20;;;7.30;99.90;;;;;;5083887;28;20484;-73
2022/02/18 08:55:15;;;;;;;8.87;5.43;;;7.30;99.90;;;;;;5084446;28;20472;-72
2022/02/18 08:57:44;;;;;;;12.80;4.87;;;7.40;99.90;;;;;;5081827;28;20458;-68
2022/02/18 09:00:14;;;;;;;12.10;4.20;;;7.40;99.90;;;;;;5080890;28;20458;-69
2022/02/18 09:02:42;;;;;;;11.07;4.87;;;7.40;99.90;;;;;;5081837;28;20461;-71
2022/02/18 09:05:10;;;;;;;12.10;4.80;;;7.50;99.90;;;;;;5080241;28;20469;-69
2022/02/18 09:07:39;;;;;;;9.87;4.67;;;7.50;99.90;;;;;;5077741;28;20466;-68
2022/02/18 09:10:07;;;;;;;7.93;4.70;;;7.50;99.90;;;;;;5077514;28;20455;-70
2022/02/18 09:12:37;;;;;;;12.70;4.67;;;7.60;99.90;;;;;;5077530;28;20492;-71
2022/02/18 09:15:04;;;;;;;8.93;4.53;;;7.70;99.90;;;;;;5077799;28;20450;-71
2022/02/18 09:17:33;;;;;;;11.60;4.50;;;7.70;99.90;;;;;;5077230;28;20454;-68
2022/02/18 09:20:00;;;;;;;7.40;4.57;;;7.70;99.90;;;;;;5077334;28;20458;-68
2022/02/18 09:22:27;;;;;;;8.30;4.37;;;7.70;99.90;;;;;;5077743;28;20459;-72
2022/02/18 09:24:54;;;;;;;14.80;4.63;;;7.70;99.90;;;;;;5077732;28;20458;-68
2022/02/18 09:27:21;;;;;;;14.00;4.80;;;7.70;99.90;;;;;;5077171;28;20466;-71
2022/02/18 09:29:48;;;;;;;10.53;5.67;;;7.70;99.90;;;;;;5077501;28;20821;-70
2022/02/18 09:32:15;;;;;;;12.07;5.80;;;7.80;99.90;;;;;;5076865;28;20474;-69
2022/02/18 09:34:44;;;;;;;5.50;4.60;;;7.70;99.90;;;;;;5077110;28;20459;-69
2022/02/18 09:37:15;;;;;;;12.53;5.23;;;7.70;99.90;;;;;;5076784;28;20490;-69
2022/02/18 09:39:41;;;;;;;7.43;4.07;;;7.80;99.90;;;;;;5076990;28;20894;-69
2022/02/18 09:42:09;;;;;;;9.20;4.70;;;7.90;99.90;;;;;;5076928;28;20450;-69
2022/02/18 09:44:37;;;;;;;9.33;4.17;;;7.90;99.90;;;;;;5077978;28;20469;-68
2022/02/18 09:47:04;;;;;;;8.93;4.87;;;7.90;99.90;;;;;;5077001;28;20465;-69
2022/02/18 09:49:35;;;;;;;9.87;4.00;;;8.00;99.90;;;;;;5076590;28;20454;-68
2022/02/18 09:52:11;;;;;;;8.40;3.90;;;8.00;99.90;;;;;;5078821;28;20462;-69
2022/02/18 09:54:38;;;;;;;9.80;4.60;;;8.00;99.90;;;;;;5078567;28;20863;-68
2022/02/18 09:57:05;;;;;;;7.73;4.03;;;8.00;99.90;;;;;;5076541;28;20554;-69
2022/02/18 09:59:33;;;;;;;9.77;4.73;;;8.00;99.90;;;;;;5076340;28;20458;-70
2022/02/18 10:02:02;;;;;;;7.70;3.40;;;8.10;99.90;;;;;;5076455;28;20454;-69
2022/02/18 10:04:29;;;;;;;6.83;3.53;;;8.10;99.90;;;;;;5076518;28;20576;-69
2022/02/18 10:06:56;;;;;;;14.43;4.03;;;8.10;99.90;;;;;;5076334;28;20462;-69
2022/02/18 10:09:44;;;;;;;9.13;3.67;;;8.20;99.90;;;;;;5075854;28;20801;-68
2022/02/18 10:12:14;;;;;;;8.40;3.93;;;8.20;99.90;;;;;;5076450;28;20477;-68
2022/02/18 10:14:58;;;;;;;4.80;4.00;;;8.20;99.90;;;;;;5076328;28;20455;-69
2022/02/18 10:17:38;;;;;;;7.73;3.70;;;8.20;99.90;;;;;;5076055;28;20446;-69
2022/02/18 10:20:15;;;;;;;5.03;3.50;;;8.20;99.90;;;;;;5076305;28;20434;-69
2022/02/18 10:22:55;;;;;;;10.10;3.50;;;8.30;99.90;;;;;;5076857;28;20496;-69
2022/02/18 10:25:25;;;;;;;10.00;3.70;;;8.30;99.90;;;;;;5077792;28;20778;-69
2022/02/18 10:27:53;;;;;;;7.07;3.33;;;8.40;99.90;;;;;;5076834;28;20457;-70
2022/02/18 10:30:23;;;;;;;4.77;2.77;;;8.40;99.90;;;;;;5075100;28;20826;-69
2022/02/18 10:32:51;;;;;;;7.13;2.80;;;8.40;99.90;;;;;;5076259;28;20482;-69
2022/02/18 10:35:22;;;;;;;5.83;2.83;;;8.40;99.90;;;;;;5076576;28;20482;-68
2022/02/18 10:37:51;;;;;;;13.23;3.67;;;8.50;99.90;;;;;;5076245;28;20442;-69
2022/02/18 10:40:19;;;;;;;6.67;3.37;;;8.50;99.90;;;;;;5076904;28;20541;-69
2022/02/18 10:42:48;;;;;;;7.13;2.50;;;8.50;99.90;;;;;;5077912;28;20450;-69
2022/02/18 10:45:18;;;;;;;6.30;3.23;;;8.50;99.90;;;;;;5078986;28;20468;-69
2022/02/18 10:47:46;;;;;;;5.70;3.10;;;8.50;99.90;;;;;;5077969;28;20664;-68
2022/02/18 10:50:20;;;;;;;10.20;2.97;;;8.50;99.90;;;;;;5079149;28;20800;-68
2022/02/18 10:53:12;;;;;;;6.27;2.60;;;8.60;99.90;;;;;;5078297;28;20463;-68
2022/02/18 10:55:52;;;;;;;4.23;3.00;;;8.60;99.90;;;;;;5077774;28;20435;-67
2022/02/18 10:58:23;;;;;;;8.23;2.90;;;8.70;99.90;;;;;;5077367;28;20453;-69
2022/02/18 11:01:02;;;;;;;6.03;3.10;;;8.60;99.90;;;;;;5077224;28;20490;-69
2022/02/18 11:03:29;;;;;;;8.83;3.30;;;8.70;99.90;;;;;;5076527;28;20434;-69
2022/02/18 11:05:56;;;;;;;15.93;3.30;;;8.60;99.90;;;;;;5075592;28;20798;-69
2022/02/18 11:08:29;;;;;;;7.00;2.77;;;8.60;99.90;;;;;;5075447;28;20557;-69
2022/02/18 11:10:56;;;;;;;7.00;2.70;;;8.60;99.90;;;;;;5075077;28;20446;-68
2022/02/18 11:13:25;;;;;;;6.30;2.17;;;8.60;99.90;;;;;;5075012;28;20990;-68
2022/02/18 11:15:54;;;;;;;7.47;2.83;;;8.60;99.90;;;;;;5076333;28;20485;-68
2022/02/18 11:18:20;;;;;;;10.13;2.80;;;8.50;99.90;;;;;;5074839;28;20922;-68
2022/02/18 11:20:48;;;;;;;6.60;2.50;;;8.50;99.90;;;;;;5075437;28;20462;-68
2022/02/18 11:23:17;;;;;;;7.03;1.70;;;8.50;99.90;;;;;;5075293;28;20490;-68
2022/02/18 11:25:47;;;;;;;2.13;1.40;;;8.40;99.90;;;;;;5076593;28;20787;-68
2022/02/18 11:28:14;;;;;;;4.93;1.67;;;8.40;99.90;;;;;;5074646;28;20470;-68
2022/02/18 11:30:48;;;;;;;6.77;2.00;;;8.40;99.90;;;;;;5074093;28;20478;-68
2022/02/18 11:33:28;;;;;;;5.07;2.07;;;8.20;99.90;;;;;;5074489;28;20509;-70
2022/02/18 11:36:07;;;;;;;5.40;2.30;;;8.00;99.90;;;;;;5074896;28;20438;-68
2022/02/18 11:38:55;;;;;;;7.77;2.87;;;7.60;99.90;;;;;;5076610;28;20549;-68
2022/02/18 11:41:43;;;;;;;5.40;1.83;;;7.50;99.90;;;;;;5075435;28;20442;-68
2022/02/18 11:44:13;;;;;;;4.80;2.13;;;7.30;99.90;;;;;;5079989;28;20443;-68
2022/02/18 11:46:41;;;;;;;9.77;2.60;;;7.20;99.90;;;;;;5078729;28;20458;-67
2022/02/18 11:49:12;;;;;;;4.43;2.07;;;7.10;99.90;;;;;;5078278;28;20549;-68
2022/02/18 11:51:43;;;;;;;6.73;2.53;;;7.00;99.90;;;;;;5078642;28;20466;-68
2022/02/18 11:54:32;;;;;;;6.03;2.30;;;6.90;99.90;;;;;;5078339;28;20457;-70
2022/02/18 11:57:00;;;;;;;8.33;2.80;;;6.80;99.90;;;;;;5073764;28;20453;-68
2022/02/18 11:59:57;;;;;;;8.17;2.80;;;6.80;99.90;;;;;;5079029;28;20753;-69
2022/02/18 12:02:45;;;;;;;8.90;3.80;;;6.80;99.90;;;;;;5078730;28;20461;-68
2022/02/18 12:05:15;;;;;;;6.53;3.57;;;6.80;99.90;;;;;;5079531;28;20504;-69
2022/02/18 12:07:42;;;;;;;7.00;3.27;;;6.80;99.90;;;;;;5079667;28;20525;-69
2022/02/18 12:10:23;;;;;;;13.03;2.90;;;6.80;99.90;;;;;;5087317;28;20489;-72
2022/02/18 12:12:50;;;;;;;5.10;3.40;;;6.90;99.90;;;;;;5086873;28;20517;-72
2022/02/18 12:15:20;;;;;;;5.13;3.23;;;7.00;99.90;;;;;;5087177;28;20450;-72
2022/02/18 12:17:53;;;;;;;7.13;3.47;;;7.10;99.90;;;;;;5085691;28;20439;-71
2022/02/18 12:20:25;;;;;;;8.73;3.33;;;7.10;99.90;;;;;;5085392;28;20466;-71
2022/02/18 12:22:53;;;;;;;6.43;3.23;;;7.10;99.90;;;;;;5080483;28;20495;-68
2022/02/18 12:25:26;;;;;;;10.07;3.70;;;7.20;99.90;;;;;;5078665;28;20458;-68
2022/02/18 12:27:54;;;;;;;7.63;3.13;;;7.20;99.90;;;;;;5077955;28;20465;-68
2022/02/18 12:30:53;;;;;;;3.83;2.77;;;7.30;99.90;;;;;;5077799;28;20489;-68
2022/02/18 12:33:21;;;;;;;4.47;2.67;;;7.40;99.90;;;;;;5078054;28;20462;-68
2022/02/18 12:35:48;;;;;;;4.43;3.00;;;7.50;99.90;;;;;;5078287;28;20793;-69
2022/02/18 12:38:17;;;;;;;6.27;3.40;;;7.50;99.90;;;;;;5078084;28;20473;-68
2022/02/18 12:40:45;;;;;;;5.57;3.50;;;7.60;99.90;;;;;;5077906;28;20515;-68
2022/02/18 12:43:16;;;;;;;8.47;4.20;;;7.60;99.90;;;;;;5077883;28;20492;-69
2022/02/18 12:45:48;;;;;;;4.73;2.93;;;7.70;99.90;;;;;;5077834;28;20541;-68
2022/02/18 12:48:15;;;;;;;8.67;3.10;;;7.70;99.90;;;;;;5077668;28;20797;-68
2022/02/18 12:50:47;;;;;;;6.50;2.90;;;7.70;99.90;;;;;;5077740;28;20796;-68
2022/02/18 12:53:20;;;;;;;4.20;2.67;;;7.70;99.90;;;;;;5077573;28;20498;-69
2022/02/18 12:55:48;;;;;;;7.00;3.23;;;7.70;99.90;;;;;;5078490;28;20446;-68
2022/02/18 12:58:16;;;;;;;5.67;3.47;;;7.80;99.90;;;;;;5078484;28;20485;-69
2022/02/18 13:00:43;;;;;;;9.53;3.37;;;7.80;99.90;;;;;;5079022;28;20469;-70
2022/02/18 13:03:11;;;;;;;7.57;2.60;;;7.80;99.90;;;;;;5080681;28;20568;-69